createdAt,value
2023-04-16T00:01:06.111Z,3.75
2023-04-16T00:03:53.607Z,4.63
2023-04-16T00:06:41.167Z,4.18
2023-04-16T00:09:28.552Z,4.03
2023-04-16T00:12:15.904Z,3.47
2023-04-16T00:15:03.233Z,3.90
2023-04-16T00:17:50.640Z,3.75
2023-04-16T00:20:37.992Z,3.30
2023-04-16T00:23:25.324Z,3.80
2023-04-16T00:26:12.610Z,3.30
2023-04-16T00:28:59.932Z,3.53
2023-04-16T00:31:47.238Z,3.05
2023-04-16T00:34:34.573Z,3.35
2023-04-16T00:37:21.931Z,3.20
2023-04-16T00:40:09.269Z,2.70
2023-04-16T00:42:57.617Z,2.47
2023-04-16T00:45:44.974Z,3.00
2023-04-16T00:48:32.305Z,3.03
2023-04-16T00:51:19.697Z,2.70
2023-04-16T00:54:07.002Z,2.75
2023-04-16T00:56:54.310Z,3.25
2023-04-16T00:59:41.633Z,2.00
2023-04-16T01:02:29.078Z,2.90
2023-04-16T01:05:16.481Z,2.15
2023-04-16T01:08:03.793Z,2.55
2023-04-16T01:10:51.236Z,2.47
2023-04-16T01:13:38.541Z,2.05
2023-04-16T01:16:25.909Z,2.42
2023-04-16T01:19:13.233Z,1.95
2023-04-16T01:22:00.589Z,1.67
2023-04-16T01:24:47.911Z,2.00
2023-04-16T01:27:35.250Z,2.03
2023-04-16T01:30:22.606Z,2.17
2023-04-16T01:33:09.914Z,2.67
2023-04-16T01:35:57.228Z,1.75
2023-04-16T01:38:44.557Z,1.60
2023-04-16T01:41:31.896Z,1.88
2023-04-16T01:44:19.222Z,1.70
2023-04-16T01:47:06.643Z,2.10
2023-04-16T01:49:53.970Z,1.45
2023-04-16T01:52:41.326Z,1.80
2023-04-16T01:55:28.663Z,2.22
2023-04-16T01:58:16.029Z,1.08
2023-04-16T02:01:03.377Z,2.03
2023-04-16T02:03:50.874Z,1.55
2023-04-16T02:06:38.264Z,1.58
2023-04-16T02:09:25.621Z,1.67
2023-04-16T02:12:12.919Z,1.45
2023-04-16T02:15:00.447Z,1.65
2023-04-16T02:17:47.789Z,1.50
2023-04-16T02:20:35.189Z,1.65
2023-04-16T02:23:22.493Z,1.42
2023-04-16T02:26:09.809Z,1.40
2023-04-16T02:28:57.109Z,1.80
2023-04-16T02:31:44.614Z,1.40
2023-04-16T02:34:31.984Z,1.23
2023-04-16T02:37:19.697Z,1.60
2023-04-16T02:40:06.992Z,1.42
2023-04-16T02:42:54.295Z,1.30
2023-04-16T02:45:41.636Z,1.33
2023-04-16T02:48:28.984Z,1.40
2023-04-16T02:51:16.278Z,1.27
2023-04-16T02:54:03.631Z,1.15
2023-04-16T02:56:50.933Z,0.90
2023-04-16T02:59:38.258Z,1.52
2023-04-16T03:02:25.646Z,1.30
2023-04-16T03:05:13.019Z,1.15
2023-04-16T03:08:00.293Z,0.80
2023-04-16T03:10:47.602Z,1.20
2023-04-16T03:13:34.905Z,1.10
2023-04-16T03:16:22.407Z,1.30
2023-04-16T03:19:10.112Z,1.23
2023-04-16T03:21:57.581Z,1.20
2023-04-16T03:24:44.861Z,1.15
2023-04-16T03:27:32.210Z,1.13
2023-04-16T03:30:19.517Z,1.13
2023-04-16T03:33:06.897Z,1.13
2023-04-16T03:35:54.224Z,1.25
2023-04-16T03:38:41.523Z,1.40
2023-04-16T03:41:28.849Z,1.23
2023-04-16T03:44:16.189Z,1.42
2023-04-16T03:47:03.519Z,1.10
2023-04-16T03:49:50.917Z,1.20
2023-04-16T03:52:38.256Z,1.30
2023-04-16T03:55:25.578Z,1.23
2023-04-16T03:58:12.898Z,1.15
2023-04-16T04:01:00.273Z,1.30
2023-04-16T04:03:47.905Z,1.27
2023-04-16T04:06:35.386Z,1.10
2023-04-16T04:09:22.697Z,1.05
2023-04-16T04:12:10.029Z,0.90
2023-04-16T04:14:57.393Z,1.30
2023-04-16T04:17:44.725Z,1.08
2023-04-16T04:20:32.037Z,1.10
2023-04-16T04:23:19.361Z,1.15
2023-04-16T04:26:06.666Z,1.23
2023-04-16T04:28:54.381Z,1.17
2023-04-16T04:31:41.747Z,1.08
2023-04-16T04:34:29.139Z,0.98
2023-04-16T04:37:16.517Z,1.20
2023-04-16T04:40:03.849Z,0.90
2023-04-16T04:42:51.153Z,1.15
2023-04-16T04:45:38.520Z,1.23
2023-04-16T04:48:25.886Z,1.30
2023-04-16T04:51:13.198Z,1.42
2023-04-16T04:54:00.497Z,1.30
2023-04-16T04:56:47.817Z,1.55
2023-04-16T04:59:35.098Z,1.38
2023-04-16T05:02:22.522Z,1.30
2023-04-16T05:05:09.981Z,1.48
2023-04-16T05:07:57.349Z,1.05
2023-04-16T05:10:44.671Z,1.35
2023-04-16T05:13:32.013Z,1.00
2023-04-16T05:16:20.214Z,1.40
2023-04-16T05:19:07.706Z,1.40
2023-04-16T05:21:55.116Z,1.30
2023-04-16T05:24:42.423Z,1.45
2023-04-16T05:27:29.741Z,1.15
2023-04-16T05:30:17.067Z,1.30
2023-04-16T05:33:04.379Z,1.40
2023-04-16T05:35:51.724Z,1.20
2023-04-16T05:38:39.017Z,1.20
2023-04-16T05:41:26.364Z,1.10
2023-04-16T05:44:13.699Z,1.15
2023-04-16T05:47:01.025Z,1.33
2023-04-16T05:49:48.314Z,1.40
2023-04-16T05:52:35.887Z,2.20
2023-04-16T05:55:23.205Z,1.40
2023-04-16T05:58:10.528Z,1.75
2023-04-16T06:00:57.872Z,2.15
2023-04-16T06:03:45.401Z,0.75
2023-04-16T06:06:32.841Z,1.15
2023-04-16T06:09:20.228Z,1.10
2023-04-16T06:12:07.532Z,1.02
2023-04-16T06:14:54.853Z,1.10
2023-04-16T06:17:42.209Z,0.85
2023-04-16T06:20:29.573Z,1.20
2023-04-16T06:23:16.882Z,1.08
2023-04-16T06:26:04.239Z,0.98
2023-04-16T06:28:51.549Z,0.80
2023-04-16T06:31:38.903Z,1.08
2023-04-16T06:34:26.217Z,0.95
2023-04-16T06:37:13.518Z,1.15
2023-04-16T06:40:00.926Z,1.25
2023-04-16T06:42:48.265Z,1.13
2023-04-16T06:45:35.584Z,0.80
2023-04-16T06:48:22.919Z,0.63
2023-04-16T06:51:10.239Z,1.08
2023-04-16T06:53:57.582Z,1.13
2023-04-16T06:56:44.882Z,0.90
2023-04-16T06:59:32.204Z,0.95
2023-04-16T07:02:19.599Z,0.57
2023-04-16T07:05:07.088Z,0.77
2023-04-16T07:07:54.399Z,0.80
2023-04-16T07:10:41.741Z,0.88
2023-04-16T07:13:29.023Z,0.80
2023-04-16T07:16:16.397Z,0.73
2023-04-16T07:19:03.726Z,0.65
2023-04-16T07:21:51.666Z,0.85
2023-04-16T07:24:38.942Z,0.80
2023-04-16T07:27:26.297Z,0.50
2023-04-16T07:30:13.614Z,0.40
2023-04-16T07:33:00.937Z,0.50
2023-04-16T07:35:48.277Z,0.63
2023-04-16T07:38:35.627Z,0.88
2023-04-16T07:41:22.940Z,1.95
2023-04-16T07:44:10.282Z,0.50
2023-04-16T07:46:57.626Z,0.47
2023-04-16T07:49:44.997Z,0.40
2023-04-16T07:52:33.719Z,0.73
2023-04-16T07:55:21.051Z,0.80
2023-04-16T07:57:48.274Z,0.40
2023-04-16T08:00:15.296Z,0.60
2023-04-16T08:02:42.426Z,0.70
2023-04-16T08:05:09.592Z,0.90
2023-04-16T08:07:36.634Z,0.70
2023-04-16T08:10:06.119Z,0.70
2023-04-16T08:12:33.160Z,0.65
2023-04-16T08:15:00.150Z,0.70
2023-04-16T08:17:28.335Z,0.70
2023-04-16T08:19:55.349Z,0.50
2023-04-16T08:22:22.371Z,0.55
2023-04-16T08:24:49.415Z,0.68
2023-04-16T08:27:19.978Z,0.70
2023-04-16T08:29:47.436Z,0.60
2023-04-16T08:32:14.456Z,1.00
2023-04-16T08:34:41.764Z,0.70
2023-04-16T08:37:08.834Z,0.88
2023-04-16T08:39:36.169Z,1.23
2023-04-16T08:42:03.190Z,1.13
2023-04-16T08:44:30.297Z,1.00
2023-04-16T08:46:57.405Z,0.77
2023-04-16T08:49:24.535Z,1.45
2023-04-16T08:51:51.554Z,0.68
2023-04-16T08:54:18.638Z,0.82
2023-04-16T08:56:45.810Z,0.68
2023-04-16T08:59:12.828Z,0.52
2023-04-16T09:01:39.918Z,0.60
2023-04-16T09:04:07.176Z,0.70
2023-04-16T09:06:34.388Z,1.00
2023-04-16T09:09:01.425Z,0.60
2023-04-16T09:11:28.439Z,0.88
2023-04-16T09:13:55.540Z,0.63
2023-04-16T09:16:22.701Z,0.77
2023-04-16T09:18:49.757Z,0.60
2023-04-16T09:21:16.785Z,0.95
2023-04-16T09:23:43.844Z,0.70
2023-04-16T09:26:10.980Z,1.33
2023-04-16T09:28:38.082Z,0.90
2023-04-16T09:31:05.177Z,0.90
2023-04-16T09:33:33.800Z,0.70
2023-04-16T09:36:01.968Z,0.38
2023-04-16T09:38:29.020Z,0.40
2023-04-16T09:40:56.029Z,0.40
2023-04-16T09:43:23.047Z,0.70
2023-04-16T09:45:50.136Z,0.68
2023-04-16T09:48:17.150Z,0.60
2023-04-16T09:50:44.229Z,0.60
2023-04-16T09:53:11.275Z,0.45
2023-04-16T09:55:38.305Z,0.45
2023-04-16T09:58:05.384Z,0.50
2023-04-16T10:00:32.515Z,0.60
2023-04-16T10:03:02.027Z,0.40
2023-04-16T10:05:29.841Z,0.40
2023-04-16T10:07:57.084Z,0.45
2023-04-16T10:10:26.938Z,0.60
2023-04-16T10:12:54.019Z,0.75
2023-04-16T10:15:21.037Z,0.80
2023-04-16T10:17:48.129Z,0.50
2023-04-16T10:20:16.740Z,0.60
2023-04-16T10:22:44.320Z,0.40
2023-04-16T10:25:11.428Z,0.52
2023-04-16T10:27:38.454Z,0.30
2023-04-16T10:30:05.741Z,0.50
2023-04-16T10:32:32.827Z,0.43
2023-04-16T10:34:59.968Z,0.50
2023-04-16T10:37:28.035Z,0.60
2023-04-16T10:39:55.062Z,0.50
2023-04-16T10:42:22.489Z,0.60
2023-04-16T10:44:49.741Z,0.50
2023-04-16T10:47:16.870Z,0.60
2023-04-16T10:49:44.171Z,0.57
2023-04-16T10:52:11.291Z,0.50
2023-04-16T10:54:38.364Z,0.32
2023-04-16T10:57:05.509Z,0.35
2023-04-16T10:59:32.538Z,0.82
2023-04-16T11:01:59.675Z,0.60
2023-04-16T11:04:26.953Z,0.57
2023-04-16T11:06:54.104Z,0.40
2023-04-16T11:09:21.195Z,0.50
2023-04-16T11:11:48.300Z,0.60
2023-04-16T11:14:15.408Z,0.40
2023-04-16T11:16:42.510Z,0.40
2023-04-16T11:19:09.781Z,0.30
2023-04-16T11:21:37.009Z,0.35
2023-04-16T11:24:04.359Z,0.40
2023-04-16T11:26:31.452Z,0.30
2023-04-16T11:28:58.466Z,0.50
2023-04-16T11:31:25.552Z,0.40
2023-04-16T11:33:52.713Z,0.35
2023-04-16T11:36:19.859Z,0.40
2023-04-16T11:38:46.925Z,0.38
2023-04-16T11:41:13.962Z,0.40
2023-04-16T11:43:43.454Z,0.30
2023-04-16T11:46:20.546Z,0.40
2023-04-16T11:48:53.749Z,0.47
2023-04-16T11:51:20.826Z,0.30
2023-04-16T11:53:47.862Z,0.43
2023-04-16T11:56:14.886Z,0.30
2023-04-16T11:58:44.396Z,0.52
2023-04-16T12:01:11.429Z,0.32
2023-04-16T12:03:38.748Z,0.30
2023-04-16T12:06:05.921Z,0.30
2023-04-16T12:08:33.059Z,0.40
2023-04-16T12:11:00.100Z,0.40
2023-04-16T12:13:27.287Z,0.52
2023-04-16T12:15:54.533Z,0.57
2023-04-16T12:18:21.545Z,0.40
2023-04-16T12:20:48.597Z,0.28
2023-04-16T12:23:15.604Z,0.40
2023-04-16T12:25:42.649Z,0.40
2023-04-16T12:28:09.685Z,0.40
2023-04-16T12:30:36.744Z,0.30
2023-04-16T12:33:03.870Z,0.50
2023-04-16T12:35:30.931Z,0.40
2023-04-16T12:37:58.054Z,0.40
2023-04-16T12:40:25.098Z,0.25
2023-04-16T12:42:52.251Z,0.52
2023-04-16T12:45:19.275Z,0.52
2023-04-16T12:47:46.460Z,0.50
2023-04-16T12:50:13.580Z,0.30
2023-04-16T12:52:40.608Z,0.43
2023-04-16T12:55:07.844Z,1.00
2023-04-16T12:57:34.868Z,0.30
2023-04-16T13:00:01.969Z,0.50
2023-04-16T13:02:29.076Z,0.50
2023-04-16T13:04:56.217Z,0.43
2023-04-16T13:07:24.288Z,0.30
2023-04-16T13:09:51.351Z,0.40
2023-04-16T13:12:19.371Z,0.38
2023-04-16T13:14:46.609Z,0.50
2023-04-16T13:17:15.496Z,0.40
2023-04-16T13:19:42.653Z,0.40
2023-04-16T13:22:11.047Z,0.60
2023-04-16T13:24:38.209Z,0.40
2023-04-16T13:27:05.331Z,1.23
2023-04-16T13:29:32.425Z,0.35
2023-04-16T13:31:59.509Z,0.68
2023-04-16T13:34:26.942Z,0.68
2023-04-16T13:36:54.058Z,0.65
2023-04-16T13:39:21.347Z,0.50
2023-04-16T13:41:48.416Z,0.52
2023-04-16T13:44:15.702Z,0.50
2023-04-16T13:46:42.905Z,0.52
2023-04-16T13:49:10.330Z,0.60
2023-04-16T13:51:45.139Z,1.05
2023-04-16T13:54:12.320Z,1.05
2023-04-16T13:56:39.541Z,2.30
2023-04-16T13:59:06.684Z,1.63
2023-04-16T14:01:37.113Z,0.50
2023-04-16T14:04:04.270Z,0.50
2023-04-16T14:06:31.464Z,0.40
2023-04-16T14:08:58.567Z,0.98
2023-04-16T14:11:25.590Z,0.50
2023-04-16T14:13:55.391Z,0.65
2023-04-16T14:16:22.637Z,0.60
2023-04-16T14:18:49.685Z,0.88
2023-04-16T14:21:16.720Z,0.30
2023-04-16T14:23:43.763Z,0.40
2023-04-16T14:26:10.822Z,0.40
2023-04-16T14:28:37.867Z,0.60
2023-04-16T14:31:05.013Z,0.50
2023-04-16T14:33:32.064Z,0.60
2023-04-16T14:36:01.152Z,0.30
2023-04-16T14:38:29.699Z,0.38
2023-04-16T14:40:56.772Z,0.30
2023-04-16T14:43:23.872Z,0.30
2023-04-16T14:45:53.175Z,0.30
2023-04-16T14:48:20.188Z,0.30
2023-04-16T14:50:47.220Z,0.43
2023-04-16T14:53:14.258Z,0.30
2023-04-16T14:55:41.364Z,0.30
2023-04-16T14:58:09.023Z,0.50
2023-04-16T15:00:36.029Z,0.30
2023-04-16T15:03:03.146Z,0.20
2023-04-16T15:05:30.238Z,0.40
2023-04-16T15:07:57.277Z,0.40
2023-04-16T15:10:24.339Z,0.30
2023-04-16T15:12:51.380Z,0.60
2023-04-16T15:15:18.407Z,0.68
2023-04-16T15:17:46.090Z,0.52
2023-04-16T15:20:13.943Z,0.50
2023-04-16T15:22:40.946Z,0.38
2023-04-16T15:25:07.977Z,0.45
2023-04-16T15:27:35.007Z,0.43
2023-04-16T15:30:02.151Z,0.50
2023-04-16T15:32:29.240Z,0.60
2023-04-16T15:34:56.343Z,0.60
2023-04-16T15:37:23.420Z,0.63
2023-04-16T15:39:50.614Z,0.38
2023-04-16T15:42:17.726Z,0.40
2023-04-16T15:44:44.826Z,0.38
2023-04-16T15:47:11.884Z,0.60
2023-04-16T15:49:38.944Z,0.70
2023-04-16T15:52:06.064Z,0.60
2023-04-16T15:54:33.127Z,0.70
2023-04-16T15:57:00.164Z,0.82
2023-04-16T15:59:27.197Z,0.60
2023-04-16T16:01:54.550Z,0.40
2023-04-16T16:04:22.132Z,0.40
2023-04-16T16:06:49.167Z,0.50
2023-04-16T16:09:16.254Z,0.40
2023-04-16T16:11:43.294Z,0.55
2023-04-16T16:14:10.342Z,0.55
2023-04-16T16:16:37.372Z,0.45
2023-04-16T16:19:04.486Z,0.30
2023-04-16T16:21:31.549Z,0.50
2023-04-16T16:23:58.786Z,0.30
2023-04-16T16:26:25.793Z,0.30
2023-04-16T16:28:52.907Z,0.50
2023-04-16T16:31:19.944Z,0.38
2023-04-16T16:33:47.005Z,0.40
2023-04-16T16:36:14.042Z,0.40
2023-04-16T16:38:41.113Z,0.35
2023-04-16T16:41:08.266Z,0.30
2023-04-16T16:43:35.321Z,1.20
2023-04-16T16:46:02.377Z,0.60
2023-04-16T16:48:29.552Z,0.88
2023-04-16T16:50:56.935Z,0.50
2023-04-16T16:53:24.927Z,0.60
2023-04-16T16:55:51.971Z,0.68
2023-04-16T16:58:19.059Z,0.90
2023-04-16T17:00:46.170Z,0.80
2023-04-16T17:03:13.440Z,0.70
2023-04-16T17:05:41.125Z,0.50
2023-04-16T17:08:08.160Z,0.60
2023-04-16T17:10:35.409Z,0.40
2023-04-16T17:13:02.504Z,0.50
2023-04-16T17:15:29.523Z,0.47
2023-04-16T17:17:56.624Z,0.43
2023-04-16T17:20:23.658Z,0.50
2023-04-16T17:22:50.664Z,0.73
2023-04-16T17:25:17.698Z,0.90
2023-04-16T17:27:44.736Z,0.93
2023-04-16T17:30:11.752Z,0.85
2023-04-16T17:32:38.911Z,0.80
2023-04-16T17:35:05.991Z,0.70
2023-04-16T17:37:33.077Z,0.65
2023-04-16T17:40:00.178Z,0.85
2023-04-16T17:42:27.196Z,0.60
2023-04-16T17:44:54.208Z,0.75
2023-04-16T17:47:21.320Z,1.20
2023-04-16T17:49:48.322Z,1.70
2023-04-16T17:52:15.527Z,1.50
2023-04-16T17:54:42.607Z,1.48
2023-04-16T17:57:09.656Z,1.30
2023-04-16T17:59:36.652Z,0.73
2023-04-16T18:02:03.829Z,0.60
2023-04-16T18:04:31.055Z,0.50
2023-04-16T18:06:58.242Z,0.60
2023-04-16T18:09:25.762Z,0.68
2023-04-16T18:11:52.786Z,0.50
2023-04-16T18:14:19.845Z,0.50
2023-04-16T18:16:46.998Z,0.52
2023-04-16T18:19:14.568Z,0.40
2023-04-16T18:21:41.557Z,0.50
2023-04-16T18:24:08.679Z,0.50
2023-04-16T18:26:36.288Z,0.50
2023-04-16T18:29:04.031Z,0.90
2023-04-16T18:31:31.253Z,0.68
2023-04-16T18:33:58.654Z,1.00
2023-04-16T18:36:26.010Z,1.08
2023-04-16T18:39:01.635Z,0.93
2023-04-16T18:41:29.707Z,0.95
2023-04-16T18:43:56.842Z,0.70
2023-04-16T18:46:24.305Z,0.82
2023-04-16T18:48:51.472Z,0.80
2023-04-16T18:51:18.785Z,0.82
2023-04-16T18:53:45.961Z,0.88
2023-04-16T18:56:13.173Z,1.00
2023-04-16T18:58:40.297Z,1.27
2023-04-16T19:01:07.372Z,1.08
2023-04-16T19:03:34.971Z,1.23
2023-04-16T19:06:02.051Z,1.33
2023-04-16T19:08:29.140Z,1.70
2023-04-16T19:10:56.193Z,1.30
2023-04-16T19:13:23.410Z,1.40
2023-04-16T19:15:50.489Z,1.90
2023-04-16T19:18:17.598Z,2.17
2023-04-16T19:20:44.734Z,0.80
2023-04-16T19:23:11.849Z,0.70
2023-04-16T19:25:38.873Z,0.70
2023-04-16T19:28:05.931Z,0.80
2023-04-16T19:30:33.016Z,0.80
2023-04-16T19:33:00.069Z,1.08
2023-04-16T19:35:27.202Z,1.40
2023-04-16T19:37:54.217Z,1.20
2023-04-16T19:40:21.941Z,0.90
2023-04-16T19:42:48.959Z,1.23
2023-04-16T19:45:16.000Z,1.10
2023-04-16T19:47:43.122Z,0.98
2023-04-16T19:50:10.178Z,1.13
2023-04-16T19:52:37.258Z,1.55
2023-04-16T19:55:04.320Z,1.90
2023-04-16T19:57:31.352Z,1.80
2023-04-16T19:59:58.388Z,2.58
2023-04-16T20:02:25.511Z,2.67
2023-04-16T20:04:52.636Z,1.45
2023-04-16T20:07:19.683Z,2.00
2023-04-16T20:09:46.722Z,1.60
2023-04-16T20:12:13.759Z,1.20
2023-04-16T20:14:40.862Z,1.33
2023-04-16T20:17:08.248Z,1.60
2023-04-16T20:19:35.352Z,1.27
2023-04-16T20:22:02.977Z,0.90
2023-04-16T20:24:30.671Z,0.88
2023-04-16T20:26:57.726Z,0.73
2023-04-16T20:29:24.777Z,1.10
2023-04-16T20:31:51.787Z,0.77
2023-04-16T20:34:18.780Z,1.10
2023-04-16T20:36:45.852Z,0.88
2023-04-16T20:39:13.162Z,0.82
2023-04-16T20:41:40.471Z,1.15
2023-04-16T20:44:07.573Z,1.13
2023-04-16T20:46:34.645Z,0.93
2023-04-16T20:49:01.824Z,0.98
2023-04-16T20:51:28.926Z,1.15
2023-04-16T20:53:56.308Z,1.10
2023-04-16T20:56:23.349Z,1.90
2023-04-16T20:58:50.431Z,1.40
2023-04-16T21:01:17.575Z,1.67
2023-04-16T21:03:44.888Z,1.88
2023-04-16T21:06:12.302Z,1.27
2023-04-16T21:08:39.329Z,1.10
2023-04-16T21:11:06.569Z,1.05
2023-04-16T21:13:33.808Z,1.00
2023-04-16T21:16:00.859Z,1.05
2023-04-16T21:18:28.554Z,0.98
2023-04-16T21:20:55.644Z,1.10
2023-04-16T21:23:22.674Z,0.93
2023-04-16T21:25:49.751Z,1.60
2023-04-16T21:28:16.822Z,1.77
2023-04-16T21:30:43.997Z,1.00
2023-04-16T21:33:11.041Z,1.15
2023-04-16T21:35:38.182Z,1.13
2023-04-16T21:38:05.281Z,0.90
2023-04-16T21:40:32.385Z,1.17
2023-04-16T21:42:59.449Z,1.25
2023-04-16T21:45:26.763Z,0.93
2023-04-16T21:47:54.477Z,1.17
2023-04-16T21:50:21.656Z,1.05
2023-04-16T21:52:48.714Z,0.70
2023-04-16T21:55:15.788Z,0.63
2023-04-16T21:57:42.834Z,0.68
2023-04-16T22:00:09.864Z,0.90
2023-04-16T22:02:37.047Z,0.73
2023-04-16T22:05:04.247Z,0.90
2023-04-16T22:07:31.322Z,0.88
2023-04-16T22:09:58.369Z,0.73
2023-04-16T22:12:26.115Z,0.50
2023-04-16T22:15:02.349Z,0.80
2023-04-16T22:17:30.474Z,0.43
2023-04-16T22:19:59.473Z,0.88
2023-04-16T22:22:26.482Z,0.70
2023-04-16T22:24:53.519Z,0.80
2023-04-16T22:27:20.545Z,0.63
2023-04-16T22:29:47.608Z,0.90
2023-04-16T22:32:14.775Z,0.88
2023-04-16T22:34:41.921Z,0.70
2023-04-16T22:37:08.984Z,0.90
2023-04-16T22:39:36.110Z,0.65
2023-04-16T22:42:03.305Z,0.63
2023-04-16T22:44:30.370Z,0.60
2023-04-16T22:46:57.454Z,0.70
2023-04-16T22:49:25.239Z,0.70
2023-04-16T22:51:52.353Z,0.65
2023-04-16T22:54:20.885Z,0.73
2023-04-16T22:56:48.038Z,0.57
2023-04-16T22:59:15.126Z,0.60
2023-04-16T23:01:42.190Z,0.47
2023-04-16T23:04:09.308Z,0.75
2023-04-16T23:06:36.325Z,0.70
2023-04-16T23:09:03.442Z,0.73
2023-04-16T23:11:30.528Z,0.50
2023-04-16T23:13:57.595Z,0.60
2023-04-16T23:16:24.836Z,0.65
2023-04-16T23:18:51.888Z,0.77
2023-04-16T23:21:18.978Z,0.88
2023-04-16T23:23:46.036Z,0.85
2023-04-16T23:26:13.453Z,0.82
2023-04-16T23:28:40.649Z,0.80
2023-04-16T23:31:07.759Z,0.57
2023-04-16T23:33:34.846Z,0.60
2023-04-16T23:36:01.942Z,0.80
2023-04-16T23:38:29.071Z,0.77
2023-04-16T23:40:56.157Z,0.73
2023-04-16T23:43:23.207Z,0.57
2023-04-16T23:45:51.757Z,0.80
2023-04-16T23:48:18.934Z,0.80
2023-04-16T23:50:46.040Z,1.00
2023-04-16T23:53:13.106Z,1.00
2023-04-16T23:55:40.132Z,1.10
2023-04-16T23:58:07.252Z,0.75
